Time;durP1;ratioP1;P1;durP2;ratioP2;P2;SDS_P1;SDS_P2;PMS_P1;PMS_P2;Temp;Humidity;BMP_temperature;BMP_pressure;BME280_temperature;BME280_humidity;BME280_pressure;Samples;Min_cycle;Max_cycle;Signal;HPM_P1;HPM_P2
2022/01/31 00:01:32;;;;;;;12.57;3.63;;;12.80;62.60;;;;;;5062721;28;20482;-75
2022/01/31 00:03:57;;;;;;;13.23;3.03;;;12.80;62.70;;;;;;5097869;28;20375;-75
2022/01/31 00:06:23;;;;;;;9.65;3.33;;;12.80;63.10;;;;;;5098582;28;20432;-75
2022/01/31 00:08:50;;;;;;;10.07;3.20;;;12.80;63.00;;;;;;5097982;28;20119;-76
2022/01/31 00:11:16;;;;;;;13.63;3.17;;;12.80;62.90;;;;;;5080389;28;20087;-76
2022/01/31 00:13:46;;;;;;;10.45;3.03;;;12.90;62.70;;;;;;5098429;28;20071;-76
2022/01/31 00:16:16;;;;;;;10.10;3.03;;;12.90;63.00;;;;;;5097145;28;20516;-78
2022/01/31 00:18:42;;;;;;;8.35;3.33;;;12.90;62.70;;;;;;5080793;28;20048;-76
2022/01/31 00:21:08;;;;;;;11.15;3.60;;;12.90;62.30;;;;;;5095212;28;20055;-77
2022/01/31 00:23:34;;;;;;;10.88;3.97;;;12.90;62.10;;;;;;5100146;28;20113;-78
2022/01/31 00:25:59;;;;;;;10.13;3.95;;;12.90;62.30;;;;;;5111698;28;20039;-76
2022/01/31 00:28:25;;;;;;;11.48;4.97;;;12.80;62.40;;;;;;5107473;28;20058;-76
2022/01/31 00:30:51;;;;;;;14.93;4.05;;;12.80;62.50;;;;;;5104340;28;20044;-78
2022/01/31 00:33:17;;;;;;;11.00;4.05;;;12.80;62.20;;;;;;5094438;28;20047;-76
2022/01/31 00:35:42;;;;;;;8.70;3.55;;;12.70;62.40;;;;;;5060153;28;20068;-77
2022/01/31 00:38:08;;;;;;;8.68;4.25;;;12.70;62.10;;;;;;5074143;28;20408;-76
2022/01/31 00:40:35;;;;;;;13.52;4.20;;;12.70;62.40;;;;;;5070376;28;20099;-75
2022/01/31 00:43:01;;;;;;;10.13;4.07;;;12.70;62.40;;;;;;5069793;28;20052;-75
2022/01/31 00:45:29;;;;;;;10.15;4.47;;;12.60;62.10;;;;;;5069252;28;20041;-74
2022/01/31 00:48:01;;;;;;;13.63;4.30;;;12.60;62.30;;;;;;5065460;28;20344;-74
2022/01/31 00:50:29;;;;;;;10.05;3.88;;;12.60;62.60;;;;;;5057372;28;20064;-74
2022/01/31 00:52:55;;;;;;;11.95;4.45;;;12.50;62.40;;;;;;5057299;28;20045;-75
2022/01/31 00:55:21;;;;;;;12.65;4.25;;;12.50;62.70;;;;;;5057168;28;20396;-75
2022/01/31 00:57:47;;;;;;;10.40;3.83;;;12.50;62.50;;;;;;5057298;28;20051;-74
2022/01/31 01:00:15;;;;;;;9.05;3.60;;;12.50;62.50;;;;;;5057070;28;20053;-75
2022/01/31 01:02:41;;;;;;;10.57;4.10;;;12.50;62.50;;;;;;5056754;28;20114;-75
2022/01/31 01:05:07;;;;;;;12.00;4.40;;;12.50;62.50;;;;;;5057322;28;20044;-76
2022/01/31 01:07:33;;;;;;;8.45;4.05;;;12.50;62.70;;;;;;5056801;28;20068;-74
2022/01/31 01:09:59;;;;;;;8.38;3.50;;;12.50;63.50;;;;;;5056925;28;20445;-74
2022/01/31 01:12:25;;;;;;;9.70;3.67;;;12.50;63.40;;;;;;5039257;28;20398;-74
2022/01/31 01:14:52;;;;;;;10.38;3.63;;;12.50;62.70;;;;;;5056711;28;20376;-75
2022/01/31 01:17:18;;;;;;;10.07;4.30;;;12.60;62.90;;;;;;5039379;28;20056;-73
2022/01/31 01:19:44;;;;;;;14.90;4.72;;;12.50;62.70;;;;;;5055758;28;20080;-74
2022/01/31 01:22:10;;;;;;;8.98;3.72;;;12.40;62.90;;;;;;5056484;28;20086;-73
2022/01/31 01:24:36;;;;;;;11.18;3.70;;;12.40;63.20;;;;;;5056381;28;20044;-74
2022/01/31 01:27:03;;;;;;;6.82;3.22;;;12.50;62.90;;;;;;5056320;28;20132;-74
2022/01/31 01:29:28;;;;;;;5.18;2.40;;;12.40;62.50;;;;;;5057087;28;20067;-73
2022/01/31 01:31:54;;;;;;;7.13;2.90;;;12.30;62.60;;;;;;5056459;28;20071;-74
2022/01/31 01:34:23;;;;;;;7.85;2.95;;;12.30;62.50;;;;;;5064129;28;20367;-74
2022/01/31 01:36:52;;;;;;;8.57;2.58;;;12.20;63.00;;;;;;5076215;28;20526;-73
2022/01/31 01:39:19;;;;;;;5.68;2.47;;;12.20;62.60;;;;;;5092509;28;20391;-75
2022/01/31 01:41:44;;;;;;;4.78;2.15;;;12.20;63.20;;;;;;5096774;28;20051;-74
2022/01/31 01:44:11;;;;;;;5.93;1.65;;;12.20;62.70;;;;;;5096315;28;20363;-73
2022/01/31 01:46:36;;;;;;;5.32;1.95;;;12.20;63.10;;;;;;5096171;28;20048;-74
2022/01/31 01:49:03;;;;;;;6.38;1.50;;;12.20;63.20;;;;;;5096242;28;20043;-73
2022/01/31 01:51:30;;;;;;;4.20;1.80;;;12.30;63.40;;;;;;5096556;28;20052;-73
2022/01/31 01:53:58;;;;;;;4.85;1.23;;;12.30;63.10;;;;;;5096069;28;20051;-73
2022/01/31 01:56:23;;;;;;;8.20;2.50;;;12.20;62.70;;;;;;5096319;28;20051;-74
2022/01/31 01:58:49;;;;;;;3.78;1.05;;;12.30;63.50;;;;;;5096819;28;20052;-73
2022/01/31 02:01:15;;;;;;;8.80;1.83;;;12.30;63.30;;;;;;5095891;28;20044;-74
2022/01/31 02:03:40;;;;;;;3.28;1.40;;;12.30;63.50;;;;;;5080149;28;20494;-73
2022/01/31 02:06:07;;;;;;;4.78;1.65;;;12.30;63.60;;;;;;5075073;28;20049;-74
2022/01/31 02:08:42;;;;;;;5.60;1.40;;;12.30;63.60;;;;;;5076320;28;20040;-73
2022/01/31 02:11:09;;;;;;;2.20;1.10;;;12.30;63.70;;;;;;5075658;28;20044;-74
2022/01/31 02:13:36;;;;;;;7.57;1.70;;;12.30;63.70;;;;;;5075017;28;20044;-74
2022/01/31 02:16:04;;;;;;;6.47;0.93;;;12.30;63.80;;;;;;5075563;28;20059;-74
2022/01/31 02:18:31;;;;;;;4.95;1.23;;;12.20;63.60;;;;;;5075467;28;20044;-75
2022/01/31 02:20:57;;;;;;;4.65;1.73;;;12.20;63.70;;;;;;5075467;28;20383;-73
2022/01/31 02:23:23;;;;;;;4.45;1.35;;;12.20;63.70;;;;;;5075570;28;20060;-74
2022/01/31 02:25:53;;;;;;;3.83;1.08;;;12.20;63.90;;;;;;5085773;28;20467;-74
2022/01/31 02:28:21;;;;;;;5.25;1.25;;;12.20;64.10;;;;;;5078525;28;20048;-73
2022/01/31 02:30:46;;;;;;;3.67;1.02;;;12.10;64.30;;;;;;5095293;28;20463;-74
2022/01/31 02:33:12;;;;;;;3.95;1.40;;;12.20;64.50;;;;;;5095634;28;20050;-73
2022/01/31 02:35:38;;;;;;;4.53;1.40;;;12.20;64.60;;;;;;5095160;28;20462;-74
2022/01/31 02:38:03;;;;;;;5.15;1.63;;;12.20;64.30;;;;;;5077288;28;20447;-74
2022/01/31 02:40:29;;;;;;;6.25;1.60;;;12.10;64.40;;;;;;5095663;28;20058;-73
2022/01/31 02:42:55;;;;;;;6.13;2.25;;;12.10;64.50;;;;;;5095606;28;20054;-75
2022/01/31 02:45:21;;;;;;;6.72;2.00;;;12.00;64.80;;;;;;5095267;28;20043;-74
2022/01/31 02:47:53;;;;;;;10.68;2.28;;;12.00;64.80;;;;;;5095344;28;20044;-74
2022/01/31 02:50:19;;;;;;;7.03;1.83;;;12.00;65.10;;;;;;5093538;28;20413;-75
2022/01/31 02:52:48;;;;;;;8.30;2.60;;;12.00;65.20;;;;;;5095124;28;20048;-73
2022/01/31 02:55:15;;;;;;;10.00;2.97;;;12.00;65.20;;;;;;5095545;28;20048;-74
2022/01/31 02:57:41;;;;;;;10.50;2.88;;;11.90;65.40;;;;;;5077250;28;20084;-74
2022/01/31 03:00:10;;;;;;;17.23;3.63;;;11.90;65.40;;;;;;5094941;28;20084;-73
2022/01/31 03:02:36;;;;;;;13.30;3.08;;;12.00;65.30;;;;;;5094833;28;20052;-74
2022/01/31 03:05:01;;;;;;;13.20;3.40;;;11.90;65.40;;;;;;5095303;28;20044;-72
2022/01/31 03:07:27;;;;;;;12.65;3.10;;;11.90;65.40;;;;;;5095070;28;20063;-73
2022/01/31 03:09:53;;;;;;;14.80;3.00;;;11.90;65.50;;;;;;5078093;28;20105;-73
2022/01/31 03:12:18;;;;;;;14.25;3.25;;;11.90;65.40;;;;;;5086285;28;20051;-74
2022/01/31 03:14:44;;;;;;;12.15;3.05;;;11.90;65.60;;;;;;5075017;28;20056;-73
2022/01/31 03:17:10;;;;;;;12.63;2.92;;;11.90;65.60;;;;;;5074989;28;20135;-73
2022/01/31 03:19:38;;;;;;;6.63;2.10;;;11.90;65.60;;;;;;5075043;28;20045;-74
2022/01/31 03:22:08;;;;;;;10.73;3.20;;;11.90;65.60;;;;;;5057335;28;20455;-74
2022/01/31 03:24:35;;;;;;;10.25;2.75;;;11.90;65.70;;;;;;5074654;28;20045;-73
2022/01/31 03:27:00;;;;;;;12.30;3.20;;;11.80;65.40;;;;;;5074464;28;20436;-73
2022/01/31 03:29:26;;;;;;;13.15;3.05;;;11.80;65.30;;;;;;5074834;28;20062;-74
2022/01/31 03:31:52;;;;;;;15.02;3.28;;;11.80;65.20;;;;;;5075076;28;20372;-74
2022/01/31 03:34:18;;;;;;;10.20;2.78;;;11.80;65.50;;;;;;5074508;28;20113;-74
2022/01/31 03:36:44;;;;;;;12.40;2.58;;;11.80;65.30;;;;;;5073698;28;20056;-74
2022/01/31 03:39:10;;;;;;;9.82;2.65;;;11.80;65.60;;;;;;5057828;28;20056;-75
2022/01/31 03:41:36;;;;;;;11.07;2.90;;;11.80;65.40;;;;;;5074697;28;20052;-74
2022/01/31 03:44:02;;;;;;;11.45;2.38;;;11.80;65.10;;;;;;5074458;28;20585;-74
2022/01/31 03:46:27;;;;;;;8.93;2.28;;;11.80;65.20;;;;;;5074680;28;20048;-74
2022/01/31 03:48:53;;;;;;;13.77;3.08;;;11.70;65.00;;;;;;5057553;28;20131;-73
2022/01/31 03:51:19;;;;;;;13.77;2.78;;;11.70;65.10;;;;;;5078343;28;20040;-74
2022/01/31 03:53:44;;;;;;;14.02;2.70;;;11.70;64.90;;;;;;5078178;28;20042;-72
2022/01/31 03:56:10;;;;;;;9.85;2.63;;;11.60;65.00;;;;;;5098010;28;20044;-73
2022/01/31 03:58:37;;;;;;;13.75;2.67;;;11.60;65.30;;;;;;5098463;28;20134;-73
2022/01/31 04:01:03;;;;;;;11.70;3.08;;;11.60;65.10;;;;;;5098221;28;20435;-74
2022/01/31 04:03:29;;;;;;;15.73;3.45;;;11.60;65.10;;;;;;5081183;28;20051;-73
2022/01/31 04:05:54;;;;;;;16.48;3.35;;;11.60;65.20;;;;;;5077921;28;20468;-75
2022/01/31 04:08:20;;;;;;;17.45;2.58;;;11.60;65.40;;;;;;5078075;28;20052;-74
2022/01/31 04:10:46;;;;;;;10.43;2.65;;;11.60;64.90;;;;;;5078114;28;20505;-73
2022/01/31 04:13:16;;;;;;;10.85;2.65;;;11.60;65.00;;;;;;5077766;28;20040;-75
2022/01/31 04:15:43;;;;;;;11.75;3.20;;;11.60;64.90;;;;;;5060279;28;20084;-73
2022/01/31 04:18:09;;;;;;;12.85;2.65;;;11.50;64.90;;;;;;5078006;28;20420;-74
2022/01/31 04:20:36;;;;;;;15.55;3.13;;;11.50;65.20;;;;;;5077622;28;20080;-73
2022/01/31 04:23:08;;;;;;;12.68;2.25;;;11.60;65.30;;;;;;5078172;28;20422;-74
2022/01/31 04:28:45;;;;;;;12.57;3.03;;;11.50;64.90;;;;;;5074046;28;20406;-74
2022/01/31 04:31:49;;;;;;;8.70;2.30;;;11.60;65.30;;;;;;5092831;28;20101;-75
2022/01/31 04:33:51;;;;;;;7.43;2.25;;;11.60;65.30;;;;;;5086442;28;20052;-74
2022/01/31 04:36:18;;;;;;;11.52;2.28;;;11.60;64.70;;;;;;5097632;28;20048;-74
2022/01/31 04:38:46;;;;;;;10.13;1.80;;;11.60;64.50;;;;;;5097585;28;20055;-74
2022/01/31 04:41:12;;;;;;;10.55;1.92;;;11.50;65.10;;;;;;5097396;28;20536;-74
2022/01/31 04:43:39;;;;;;;10.80;2.42;;;11.50;65.00;;;;;;5097783;28;20064;-75
2022/01/31 04:46:07;;;;;;;9.95;2.10;;;11.40;64.80;;;;;;5097328;28;20044;-73
2022/01/31 04:48:34;;;;;;;10.57;2.50;;;11.40;65.20;;;;;;5080192;28;20158;-74
2022/01/31 04:51:00;;;;;;;8.00;1.60;;;11.40;65.30;;;;;;5097224;28;20044;-73
2022/01/31 04:53:25;;;;;;;11.75;2.00;;;11.40;65.50;;;;;;5079352;28;20434;-74
2022/01/31 04:55:52;;;;;;;10.63;1.60;;;11.40;65.60;;;;;;5059233;28;20141;-73
2022/01/31 04:58:21;;;;;;;6.82;1.58;;;11.40;65.30;;;;;;5076556;28;20086;-74
2022/01/31 05:00:47;;;;;;;7.07;2.08;;;11.40;65.70;;;;;;5077452;28;20448;-73
2022/01/31 05:03:16;;;;;;;6.75;1.60;;;11.40;65.80;;;;;;5076898;28;20049;-74
2022/01/31 05:05:43;;;;;;;10.45;1.80;;;11.40;66.20;;;;;;5059230;28;20428;-74
2022/01/31 05:08:09;;;;;;;8.05;1.42;;;11.50;65.90;;;;;;5060042;28;20048;-73
2022/01/31 05:10:35;;;;;;;8.80;2.05;;;11.40;65.40;;;;;;5059079;28;20447;-73
2022/01/31 05:13:01;;;;;;;10.50;1.77;;;11.40;65.90;;;;;;5076712;28;20121;-73
2022/01/31 05:15:27;;;;;;;8.05;2.05;;;11.30;65.80;;;;;;5059240;28;20083;-75
2022/01/31 05:17:53;;;;;;;11.20;1.98;;;11.30;66.00;;;;;;5076747;28;20091;-73
2022/01/31 05:20:19;;;;;;;7.90;1.73;;;11.20;66.00;;;;;;5076225;28;20454;-72
2022/01/31 05:22:44;;;;;;;7.93;1.98;;;11.10;66.20;;;;;;5076261;28;20478;-73
2022/01/31 05:25:10;;;;;;;8.65;1.90;;;11.20;66.60;;;;;;5059132;28;20390;-72
2022/01/31 05:27:36;;;;;;;12.90;2.20;;;11.20;66.60;;;;;;5076341;28;20379;-73
2022/01/31 05:30:04;;;;;;;5.95;1.52;;;11.20;66.60;;;;;;5076176;28;20051;-73
2022/01/31 05:32:30;;;;;;;10.43;1.77;;;11.30;66.50;;;;;;5076461;28;20059;-73
2022/01/31 05:34:55;;;;;;;5.70;2.20;;;11.30;66.50;;;;;;5076284;28;20371;-73
2022/01/31 05:37:21;;;;;;;9.45;1.70;;;11.30;66.70;;;;;;5076659;28;20135;-74
2022/01/31 05:39:47;;;;;;;7.80;2.03;;;11.20;66.60;;;;;;5076096;28;20137;-72
2022/01/31 05:42:13;;;;;;;9.25;2.50;;;11.20;66.80;;;;;;5075903;28;20052;-74
2022/01/31 05:44:39;;;;;;;11.00;2.10;;;11.20;66.60;;;;;;5075962;28;20367;-73
2022/01/31 05:47:05;;;;;;;10.65;1.80;;;11.20;66.50;;;;;;5075968;28;20054;-73
2022/01/31 05:49:32;;;;;;;6.63;1.55;;;11.10;66.60;;;;;;5076164;28;20451;-75
2022/01/31 05:52:05;;;;;;;9.10;2.38;;;11.20;67.20;;;;;;5076908;28;20044;-73
2022/01/31 05:54:40;;;;;;;13.20;1.60;;;11.30;67.20;;;;;;5096139;28;20348;-73
2022/01/31 05:57:07;;;;;;;6.50;1.52;;;11.50;66.70;;;;;;5078605;28;20134;-71
2022/01/31 05:59:33;;;;;;;10.43;1.58;;;11.60;66.20;;;;;;5087435;28;20094;-72
2022/01/31 06:02:01;;;;;;;7.38;1.17;;;11.80;66.00;;;;;;5084351;28;20059;-72
2022/01/31 06:04:27;;;;;;;5.03;1.17;;;11.90;65.40;;;;;;5075663;28;20049;-71
2022/01/31 06:06:53;;;;;;;7.38;1.00;;;12.10;64.70;;;;;;5093562;28;20062;-72
2022/01/31 06:09:19;;;;;;;5.78;1.60;;;12.30;64.50;;;;;;5080189;28;20048;-74
2022/01/31 06:11:48;;;;;;;5.75;1.35;;;12.50;63.70;;;;;;5071500;28;20050;-78
2022/01/31 06:14:14;;;;;;;5.15;0.93;;;12.70;63.20;;;;;;5094877;28;20032;-75
2022/01/31 06:16:40;;;;;;;7.40;1.35;;;13.00;62.70;;;;;;5082766;28;20536;-73
2022/01/31 06:19:05;;;;;;;9.23;1.85;;;13.20;61.90;;;;;;5078490;28;20047;-75
2022/01/31 06:21:31;;;;;;;8.82;2.25;;;13.30;63.40;;;;;;5095900;28;20087;-73
2022/01/31 06:23:57;;;;;;;8.85;1.88;;;13.70;62.50;;;;;;5085343;28;20120;-74
2022/01/31 06:26:23;;;;;;;9.18;1.63;;;14.00;62.20;;;;;;5075610;28;20048;-77
2022/01/31 06:28:51;;;;;;;8.68;1.50;;;14.30;61.80;;;;;;5058272;28;20115;-72
2022/01/31 06:31:17;;;;;;;11.75;1.83;;;14.60;61.20;;;;;;5076245;28;20068;-73
2022/01/31 06:33:43;;;;;;;7.85;1.50;;;14.70;60.90;;;;;;5074949;28;20047;-72
2022/01/31 06:36:09;;;;;;;5.60;1.30;;;14.90;60.90;;;;;;5090378;28;20052;-73
2022/01/31 06:38:38;;;;;;;13.05;1.52;;;15.00;60.90;;;;;;5095630;28;20048;-73
2022/01/31 06:41:05;;;;;;;18.92;2.20;;;15.00;60.80;;;;;;5093564;28;20117;-74
2022/01/31 06:43:31;;;;;;;23.45;2.42;;;15.00;60.80;;;;;;5073611;28;20084;-75
2022/01/31 06:45:56;;;;;;;12.88;2.00;;;15.10;61.40;;;;;;5074667;28;20079;-75
2022/01/31 06:48:22;;;;;;;11.93;1.67;;;15.20;61.60;;;;;;5075078;28;20089;-75
2022/01/31 06:50:48;;;;;;;12.13;1.98;;;15.30;61.90;;;;;;5058953;28;20049;-74
2022/01/31 06:53:16;;;;;;;11.05;2.05;;;15.30;62.00;;;;;;5075427;28;20056;-72
2022/01/31 06:55:42;;;;;;;10.13;1.85;;;15.40;62.20;;;;;;5080019;28;20115;-73
2022/01/31 06:58:07;;;;;;;16.67;2.28;;;15.40;62.30;;;;;;5083077;28;20538;-76
2022/01/31 07:00:33;;;;;;;12.95;1.55;;;15.50;62.00;;;;;;5066682;28;20084;-76
2022/01/31 07:03:00;;;;;;;8.20;1.95;;;15.50;62.10;;;;;;5074099;28;20048;-74
2022/01/31 07:05:26;;;;;;;17.73;2.38;;;15.50;62.00;;;;;;5074937;28;20048;-73
2022/01/31 07:07:52;;;;;;;17.73;2.42;;;15.60;62.10;;;;;;5076565;28;20040;-73
2022/01/31 07:10:18;;;;;;;11.40;2.35;;;15.70;62.30;;;;;;5092454;28;20051;-74
2022/01/31 07:12:51;;;;;;;12.50;1.75;;;15.80;62.30;;;;;;5084635;28;20451;-74
2022/01/31 07:15:17;;;;;;;22.58;2.42;;;15.80;62.40;;;;;;5092306;28;20350;-75
2022/01/31 07:17:46;;;;;;;13.18;2.13;;;15.80;61.60;;;;;;5095025;28;20483;-74
2022/01/31 07:20:21;;;;;;;17.23;3.22;;;15.90;62.10;;;;;;5095551;28;20070;-74
2022/01/31 07:22:55;;;;;;;15.20;2.30;;;16.00;62.10;;;;;;5094812;28;20055;-76
2022/01/31 07:25:34;;;;;;;14.30;2.30;;;16.10;61.70;;;;;;5097570;28;20397;-75
2022/01/31 07:28:19;;;;;;;13.80;2.15;;;16.20;61.60;;;;;;5094471;28;20045;-74
2022/01/31 07:30:54;;;;;;;13.40;2.58;;;16.20;61.60;;;;;;5078565;28;20048;-73
2022/01/31 07:33:20;;;;;;;12.23;2.30;;;16.30;61.60;;;;;;5083852;28;20056;-76
2022/01/31 07:35:49;;;;;;;19.13;3.22;;;16.30;61.70;;;;;;5060648;28;20090;-73
2022/01/31 07:38:14;;;;;;;19.48;2.95;;;16.40;61.50;;;;;;5078848;28;20097;-74
2022/01/31 07:40:40;;;;;;;18.77;2.83;;;16.30;61.20;;;;;;5077735;28;20131;-74
2022/01/31 07:43:06;;;;;;;16.23;2.67;;;16.30;60.80;;;;;;5078219;28;20058;-73
2022/01/31 07:45:32;;;;;;;10.70;3.13;;;16.20;60.40;;;;;;5078850;28;20136;-74
2022/01/31 07:47:58;;;;;;;19.02;2.55;;;16.20;60.00;;;;;;5079021;28;20324;-73
2022/01/31 07:50:24;;;;;;;10.77;2.80;;;16.10;59.20;;;;;;5061252;28;20040;-75
2022/01/31 07:52:49;;;;;;;10.23;2.25;;;16.00;59.10;;;;;;5078262;28;20106;-73
2022/01/31 07:55:15;;;;;;;12.82;2.55;;;15.90;59.10;;;;;;5077568;28;20059;-74
2022/01/31 07:57:42;;;;;;;10.82;2.38;;;15.80;59.30;;;;;;5091105;28;20077;-74
2022/01/31 08:00:09;;;;;;;14.48;2.05;;;15.80;59.40;;;;;;5098222;28;20447;-74
2022/01/31 08:02:35;;;;;;;15.30;2.50;;;15.70;59.60;;;;;;5076052;28;20048;-74
2022/01/31 08:05:01;;;;;;;11.63;1.95;;;15.70;59.80;;;;;;5077509;28;20048;-73
2022/01/31 08:07:27;;;;;;;10.35;2.25;;;15.60;59.80;;;;;;5078692;28;20062;-73
2022/01/31 08:09:53;;;;;;;11.02;2.38;;;15.50;60.00;;;;;;5077969;28;20135;-74
2022/01/31 08:12:18;;;;;;;11.85;1.88;;;15.50;60.00;;;;;;5082326;28;20051;-74
2022/01/31 08:14:45;;;;;;;15.68;2.90;;;15.50;60.30;;;;;;5062548;28;20067;-75
2022/01/31 08:17:11;;;;;;;11.13;2.17;;;15.50;60.10;;;;;;5094136;28;20059;-74
2022/01/31 08:19:37;;;;;;;12.02;2.53;;;15.50;60.70;;;;;;5085489;28;20470;-75
2022/01/31 08:22:03;;;;;;;14.30;2.55;;;15.50;60.80;;;;;;5106568;28;20118;-74
2022/01/31 08:24:28;;;;;;;10.82;2.28;;;15.50;60.90;;;;;;5109409;28;20042;-76
2022/01/31 08:26:57;;;;;;;15.65;2.38;;;15.50;61.60;;;;;;5081424;28;20051;-84
2022/01/31 08:29:29;;;;;;;7.25;1.90;;;15.50;61.00;;;;;;5104331;28;20072;-74
2022/01/31 08:31:57;;;;;;;8.80;1.40;;;15.50;61.20;;;;;;5106774;28;20455;-74
2022/01/31 08:37:08;;;;;;;8.02;1.75;;;15.50;61.40;;;;;;5096024;28;20463;-74
2022/01/31 08:39:34;;;;;;;7.82;1.55;;;15.10;60.10;;;;;;5095726;28;20059;-74
2022/01/31 08:42:00;;;;;;;12.82;1.85;;;15.10;61.80;;;;;;5097394;28;20051;-73
2022/01/31 08:44:26;;;;;;;13.85;2.63;;;15.20;62.00;;;;;;5083045;28;20049;-76
2022/01/31 08:46:52;;;;;;;13.00;1.83;;;15.30;61.70;;;;;;5084103;28;20048;-74
2022/01/31 08:49:18;;;;;;;12.18;1.83;;;15.30;61.60;;;;;;5079650;28;20055;-72
2022/01/31 08:51:45;;;;;;;12.32;2.30;;;15.40;61.70;;;;;;5097282;28;20044;-76
2022/01/31 08:54:13;;;;;;;15.73;2.58;;;15.40;61.80;;;;;;5097135;28;20044;-72
2022/01/31 08:56:44;;;;;;;12.18;2.28;;;15.40;62.70;;;;;;5097019;28;20052;-73
2022/01/31 08:59:24;;;;;;;23.05;3.90;;;15.40;63.50;;;;;;5097011;28;20051;-75
2022/01/31 09:01:54;;;;;;;18.05;2.50;;;15.50;63.50;;;;;;5097300;28;20055;-73
2022/01/31 09:04:33;;;;;;;21.23;3.50;;;15.50;63.80;;;;;;5096172;28;20073;-74
2022/01/31 09:07:00;;;;;;;21.35;3.30;;;15.50;64.40;;;;;;5096766;28;20052;-75
2022/01/31 09:09:26;;;;;;;32.55;3.03;;;15.50;65.00;;;;;;5097309;28;20040;-72
2022/01/31 09:11:52;;;;;;;21.88;3.38;;;15.50;66.30;;;;;;5090910;28;20080;-72
2022/01/31 09:14:18;;;;;;;18.60;2.83;;;15.60;66.90;;;;;;5096768;28;20047;-74
2022/01/31 09:16:45;;;;;;;16.45;3.03;;;15.60;66.80;;;;;;5096215;28;20043;-73
2022/01/31 09:19:11;;;;;;;16.88;2.95;;;15.60;66.80;;;;;;5096596;28;20090;-74
2022/01/31 09:21:37;;;;;;;22.52;2.53;;;15.60;67.20;;;;;;5076236;28;20099;-73
2022/01/31 09:24:03;;;;;;;20.92;3.05;;;15.60;67.30;;;;;;5089379;28;20480;-74
2022/01/31 09:26:29;;;;;;;18.52;2.78;;;15.60;67.00;;;;;;5094529;28;20044;-75
2022/01/31 09:28:55;;;;;;;17.98;3.05;;;15.60;66.00;;;;;;5094301;28;20127;-74
2022/01/31 09:31:22;;;;;;;14.30;1.98;;;15.60;65.60;;;;;;5084940;28;20047;-76
2022/01/31 09:33:49;;;;;;;19.52;2.72;;;15.60;64.00;;;;;;5096928;28;20060;-74
2022/01/31 09:36:15;;;;;;;18.58;2.80;;;15.60;63.20;;;;;;5081699;28;20052;-74
2022/01/31 09:38:42;;;;;;;15.13;2.38;;;15.50;62.60;;;;;;5076463;28;20412;-73
2022/01/31 09:41:15;;;;;;;15.05;2.78;;;15.50;61.30;;;;;;5075816;28;20131;-72
2022/01/31 09:48:33;;;;;;;15.02;2.97;;;15.30;59.90;;;;;;5096054;28;20086;-79
2022/01/31 09:51:09;;;;;;;20.42;3.03;;;15.20;59.60;;;;;;5095837;28;20471;-76
2022/01/31 09:53:39;;;;;;;8.35;2.33;;;15.20;59.50;;;;;;5095706;28;20105;-77
2022/01/31 09:56:08;;;;;;;11.15;2.53;;;15.10;59.00;;;;;;5096071;28;20040;-76
2022/01/31 09:58:35;;;;;;;15.77;2.67;;;15.00;58.90;;;;;;5095751;28;20058;-75
2022/01/31 10:01:13;;;;;;;11.73;2.97;;;14.90;59.30;;;;;;5095982;28;20083;-74
2022/01/31 10:03:46;;;;;;;12.75;2.20;;;14.90;59.00;;;;;;5090012;28;20352;-74
2022/01/31 10:06:34;;;;;;;15.10;2.47;;;14.80;59.40;;;;;;5095667;28;20494;-78
2022/01/31 10:09:00;;;;;;;13.35;2.55;;;14.80;60.90;;;;;;5095663;28;20439;-75
2022/01/31 10:11:38;;;;;;;18.05;2.88;;;14.80;61.60;;;;;;5095689;28;20098;-74
2022/01/31 10:17:10;;;;;;;10.38;2.10;;;14.90;60.60;;;;;;5095306;28;20044;-75
2022/01/31 10:19:42;;;;;;;13.02;2.15;;;14.90;60.20;;;;;;5092593;28;20115;-72
2022/01/31 10:22:10;;;;;;;14.20;3.85;;;14.90;59.80;;;;;;5092009;28;20467;-77
2022/01/31 10:24:39;;;;;;;8.13;2.13;;;14.90;59.60;;;;;;5084979;28;20048;-77
2022/01/31 10:27:10;;;;;;;6.03;1.15;;;14.90;59.30;;;;;;5095560;28;20056;-76
2022/01/31 10:29:36;;;;;;;8.25;1.40;;;14.90;59.10;;;;;;5089034;28;20040;-78
2022/01/31 10:32:11;;;;;;;5.95;1.52;;;14.80;59.10;;;;;;5087116;28;20139;-76
2022/01/31 10:34:44;;;;;;;9.15;1.40;;;14.90;59.30;;;;;;5069499;28;20127;-75
2022/01/31 10:37:13;;;;;;;4.95;1.30;;;14.80;59.30;;;;;;5037485;28;20044;-78
2022/01/31 10:53:46;;;;;;;9.95;1.20;;;15.00;62.10;;;;;;5065471;28;20448;-75
2022/01/31 10:56:12;;;;;;;7.03;1.40;;;15.00;62.30;;;;;;5065415;28;20040;-75
2022/01/31 10:58:53;;;;;;;10.10;1.33;;;15.00;62.70;;;;;;5040172;28;20094;-78
2022/01/31 11:01:19;;;;;;;9.02;1.17;;;15.10;63.30;;;;;;5056671;28;20523;-76
2022/01/31 11:03:46;;;;;;;10.07;1.20;;;15.00;63.30;;;;;;5050915;28;20049;-75
2022/01/31 11:06:12;;;;;;;4.20;0.80;;;15.10;63.40;;;;;;5074140;28;20051;-76
2022/01/31 11:08:39;;;;;;;4.32;0.98;;;15.00;63.70;;;;;;5090525;28;20055;-76
2022/01/31 11:11:05;;;;;;;8.52;1.20;;;15.00;63.80;;;;;;5078058;28;20051;-76
2022/01/31 11:13:36;;;;;;;6.50;1.35;;;15.00;64.10;;;;;;5087376;28;20044;-73
2022/01/31 11:16:04;;;;;;;6.60;1.30;;;15.00;64.50;;;;;;5073868;28;20049;-77
2022/01/31 11:18:32;;;;;;;5.38;1.13;;;15.00;64.60;;;;;;5084108;28;20052;-79
2022/01/31 11:21:06;;;;;;;6.82;1.40;;;15.00;64.60;;;;;;5077842;28;20048;-79
2022/01/31 11:23:39;;;;;;;6.13;1.17;;;15.00;64.90;;;;;;5066017;28;20476;-76
2022/01/31 11:26:06;;;;;;;;;;;15.00;65.10;;;;;;5066163;28;20053;-73
2022/01/31 11:28:34;;;;;;;7.47;1.75;;;15.00;65.30;;;;;;5082378;28;20237;-75
2022/01/31 11:31:01;;;;;;;11.18;1.98;;;15.00;65.30;;;;;;5060110;28;20044;-73
2022/01/31 11:33:27;;;;;;;12.90;1.50;;;15.00;65.30;;;;;;5066543;28;20125;-75
2022/01/31 11:35:53;;;;;;;10.35;1.67;;;15.00;65.60;;;;;;5092605;28;20056;-76
2022/01/31 11:38:19;;;;;;;16.30;2.00;;;15.00;65.50;;;;;;5088095;28;20478;-73
2022/01/31 11:40:48;;;;;;;11.32;1.98;;;15.00;65.80;;;;;;5085721;28;20105;-76
2022/01/31 11:43:16;;;;;;;16.98;4.18;;;14.90;66.00;;;;;;5089696;28;20059;-81
2022/01/31 11:45:44;;;;;;;22.15;9.35;;;14.90;66.00;;;;;;5095239;28;20047;-72
2022/01/31 11:48:21;;;;;;;35.03;16.38;;;15.00;68.20;;;;;;5110083;28;20047;-77
2022/01/31 11:50:49;;;;;;;22.02;11.80;;;15.00;69.60;;;;;;5104670;28;20425;-75
2022/01/31 11:53:30;;;;;;;23.65;8.07;;;15.20;70.60;;;;;;5100670;28;20044;-75
2022/01/31 11:56:20;;;;;;;26.05;8.38;;;15.50;67.60;;;;;;5111133;28;20071;-75
2022/01/31 11:58:54;;;;;;;41.95;20.27;;;15.00;62.90;;;;;;5105071;28;20088;-78
2022/01/31 12:01:23;;;;;;;35.85;14.57;;;15.10;72.30;;;;;;5078724;28;20124;-77
2022/01/31 12:03:59;;;;;;;21.48;10.25;;;15.10;73.50;;;;;;5108972;28;20450;-77
2022/01/31 12:06:27;;;;;;;20.23;8.75;;;15.10;73.50;;;;;;5100948;28;20428;-79
2022/01/31 12:09:02;;;;;;;18.85;8.13;;;15.10;72.50;;;;;;5077603;28;20131;-79
2022/01/31 12:11:30;;;;;;;28.27;9.95;;;15.10;72.20;;;;;;5086223;28;20424;-73
2022/01/31 12:13:58;;;;;;;19.40;7.25;;;15.20;72.20;;;;;;5104580;28;20054;-78
2022/01/31 12:22:08;;;;;;;20.38;6.72;;;15.10;71.00;;;;;;5103840;28;20048;-74
2022/01/31 12:25:19;;;;;;;19.52;5.75;;;15.10;70.70;;;;;;5096440;28;20126;-75
2022/01/31 12:27:45;;;;;;;28.77;7.50;;;15.00;68.10;;;;;;5109186;28;20048;-78
2022/01/31 12:30:11;;;;;;;24.23;7.55;;;15.00;69.50;;;;;;5081573;28;20124;-76
2022/01/31 12:32:37;;;;;;;26.83;7.72;;;15.10;69.30;;;;;;5098507;28;20350;-73
2022/01/31 12:35:09;;;;;;;24.27;8.00;;;15.10;69.00;;;;;;5111732;28;20059;-75
2022/01/31 12:37:48;;;;;;;22.77;8.02;;;15.10;68.40;;;;;;5107349;28;20054;-76
2022/01/31 12:40:30;;;;;;;29.42;7.95;;;15.10;68.10;;;;;;5102094;28;20055;-74
2022/01/31 12:45:26;;;;;;;23.58;7.68;;;15.10;68.00;;;;;;5090119;28;20095;-78
2022/01/31 12:48:15;;;;;;;21.08;5.97;;;15.10;67.30;;;;;;5104419;28;20075;-74
2022/01/31 12:50:53;;;;;;;20.08;6.28;;;15.10;67.60;;;;;;5097643;28;20457;-73
2022/01/31 12:53:35;;;;;;;22.85;5.75;;;15.10;67.90;;;;;;5118380;28;20105;-75
2022/01/31 12:56:13;;;;;;;28.20;6.28;;;15.10;67.00;;;;;;5090937;28;20494;-74
2022/01/31 12:58:38;;;;;;;24.42;5.03;;;15.00;66.30;;;;;;5077000;28;20052;-74
2022/01/31 13:01:19;;;;;;;22.52;5.95;;;15.00;66.10;;;;;;5071625;28;20045;-73
2022/01/31 13:03:54;;;;;;;18.70;4.57;;;15.00;66.30;;;;;;5076916;28;20439;-72
2022/01/31 13:06:29;;;;;;;17.88;4.32;;;15.00;66.50;;;;;;5076866;28;20463;-72
2022/01/31 13:08:57;;;;;;;26.02;5.43;;;15.00;67.60;;;;;;5077834;28;20351;-74
2022/01/31 13:11:22;;;;;;;20.48;4.70;;;15.00;67.30;;;;;;5089024;28;20127;-72
2022/01/31 13:13:48;;;;;;;24.33;4.78;;;15.00;67.60;;;;;;5076853;28;20128;-73
2022/01/31 13:16:15;;;;;;;27.05;5.65;;;15.00;67.60;;;;;;5076393;28;20087;-72
2022/01/31 13:18:42;;;;;;;25.42;5.57;;;15.00;67.70;;;;;;5076542;28;20057;-72
2022/01/31 13:21:13;;;;;;;23.60;4.85;;;15.00;67.90;;;;;;5076563;28;20059;-72